Time;durP1;ratioP1;P1;durP2;ratioP2;P2;SDS_P1;SDS_P2;PMS_P1;PMS_P2;Temp;Humidity;BMP_temperature;BMP_pressure;BME280_temperature;BME280_humidity;BME280_pressure;Samples;Min_cycle;Max_cycle;Signal;HPM_P1;HPM_P2
2022/10/10 00:00:20;;;;;;;21.95;21.00;;;;;;;7.45;100.00;101510.97;5059967;28;20032;-72
2022/10/10 00:02:46;;;;;;;24.27;23.25;;;;;;;7.44;100.00;101514.53;5066003;28;20035;-72
2022/10/10 00:05:11;;;;;;;19.35;18.50;;;;;;;7.39;100.00;101505.22;5077431;28;20020;-73
2022/10/10 00:07:36;;;;;;;20.02;19.23;;;;;;;7.36;100.00;101505.47;5059468;28;20150;-72
2022/10/10 00:10:02;;;;;;;19.55;18.75;;;;;;;7.34;100.00;101490.78;5054732;28;20049;-72
2022/10/10 00:12:28;;;;;;;19.15;18.35;;;;;;;7.39;100.00;101494.72;5060420;28;20140;-72
2022/10/10 00:14:53;;;;;;;20.85;20.00;;;;;;;7.37;100.00;101499.25;5056974;28;20462;-72
2022/10/10 00:17:19;;;;;;;17.98;16.83;;;;;;;7.38;100.00;101495.69;5064918;28;20036;-72
2022/10/10 00:19:44;;;;;;;17.80;16.98;;;;;;;7.38;100.00;101492.19;5062835;28;20028;-72
2022/10/10 00:22:09;;;;;;;19.00;18.23;;;;;;;7.38;100.00;101495.69;5059418;28;20136;-72
2022/10/10 00:24:35;;;;;;;18.55;17.20;;;;;;;7.35;100.00;101490.63;5063888;28;20043;-72
2022/10/10 00:27:00;;;;;;;16.83;15.90;;;;;;;7.33;100.00;101484.66;5059104;28;20036;-72
2022/10/10 00:29:26;;;;;;;17.60;16.85;;;;;;;7.29;100.00;101467.44;5063914;28;20504;-72
2022/10/10 00:31:51;;;;;;;18.30;17.50;;;;;;;7.33;100.00;101474.16;5057353;28;20028;-72
2022/10/10 00:34:16;;;;;;;20.88;19.67;;;;;;;7.31;100.00;101470.81;5063759;28;20050;-72
2022/10/10 00:36:42;;;;;;;16.52;15.32;;;;;;;7.21;100.00;101451.44;5060296;28;20119;-72
2022/10/10 00:39:07;;;;;;;20.05;19.05;;;;;;;7.29;100.00;101459.56;5049531;28;20459;-72
2022/10/10 00:41:32;;;;;;;18.50;17.77;;;;;;;7.28;100.00;101459.72;5062272;28;20108;-72
2022/10/10 00:44:09;;;;;;;17.05;16.40;;;;;;;7.23;100.00;101449.56;5064825;28;20067;-72
2022/10/10 00:46:35;;;;;;;16.83;16.17;;;;;;;7.19;100.00;101448.09;5061379;28;20052;-72
2022/10/10 00:49:03;;;;;;;19.88;18.98;;;;;;;7.20;100.00;101449.75;5059992;28;20076;-72
2022/10/10 00:51:28;;;;;;;16.75;16.08;;;;;;;7.18;100.00;101443.78;5067840;28;20043;-73
2022/10/10 00:54:01;;;;;;;19.00;18.08;;;;;;;7.16;100.00;101440.44;5065945;28;20357;-72
2022/10/10 00:56:32;;;;;;;18.42;17.33;;;;;;;7.13;100.00;101446.75;5059019;28;20131;-72
2022/10/10 00:59:05;;;;;;;19.42;18.42;;;;;;;7.13;100.00;101441.50;5057746;28;20040;-73
2022/10/10 01:01:30;;;;;;;17.27;16.02;;;;;;;7.10;100.00;101435.63;5065834;28;20545;-72
2022/10/10 01:03:58;;;;;;;17.52;16.77;;;;;;;7.05;100.00;101432.50;5057795;28;20033;-72
2022/10/10 01:06:23;;;;;;;17.75;17.02;;;;;;;7.05;100.00;101428.09;5063580;28;20032;-72
2022/10/10 01:08:49;;;;;;;17.38;16.70;;;;;;;7.05;100.00;101432.50;5062504;28;20115;-72
2022/10/10 01:11:42;;;;;;;15.32;14.57;;;;;;;7.04;100.00;101425.59;5061874;28;20052;-72
2022/10/10 01:14:25;;;;;;;15.13;14.35;;;;;;;7.02;100.00;101423.09;5067483;28;20055;-72
2022/10/10 01:16:59;;;;;;;16.52;15.90;;;;;;;6.98;100.00;101417.22;5061394;28;20031;-72
2022/10/10 01:19:46;;;;;;;16.17;15.23;;;;;;;6.98;100.00;101424.25;5064345;28;20504;-72
2022/10/10 01:22:25;;;;;;;15.35;14.75;;;;;;;6.92;100.00;101425.53;5061628;28;20036;-72
2022/10/10 01:25:04;;;;;;;13.68;13.10;;;;;;;6.84;100.00;101406.91;5057391;28;20032;-72
2022/10/10 01:27:50;;;;;;;14.55;13.55;;;;;;;6.93;100.00;101418.53;5063630;28;20411;-71
2022/10/10 01:30:21;;;;;;;15.50;14.73;;;;;;;6.76;100.00;101396.13;5062129;28;20028;-72
2022/10/10 01:32:46;;;;;;;;;;;;;;;6.90;100.00;101418.72;5065028;28;20073;-72
2022/10/10 01:35:31;;;;;;;9.87;9.47;;;;;;;6.89;100.00;101417.91;5058606;28;19916;-72
2022/10/10 01:38:03;;;;;;;13.95;13.32;;;;;;;6.87;100.00;101417.16;5058739;28;20333;-72
2022/10/10 01:40:38;;;;;;;14.75;14.00;;;;;;;6.85;100.00;101408.56;5064815;28;20048;-72
2022/10/10 01:43:07;;;;;;;14.70;14.07;;;;;;;6.84;100.00;101401.66;5058369;28;20084;-72
2022/10/10 01:45:33;;;;;;;15.88;15.15;;;;;;;6.71;100.00;101385.97;5062372;28;21376;-72
2022/10/10 01:48:04;;;;;;;15.48;14.75;;;;;;;6.82;100.00;101405.34;5067310;28;20035;-72
2022/10/10 01:50:36;;;;;;;16.00;15.38;;;;;;;6.79;100.00;101399.38;5061194;28;20036;-72
2022/10/10 01:53:18;;;;;;;16.65;15.32;;;;;;;6.79;100.00;101398.50;5061541;28;20368;-72
2022/10/10 01:55:49;;;;;;;15.48;14.75;;;;;;;6.75;100.00;101394.44;5064113;28;20034;-72
2022/10/10 01:58:57;;;;;;;15.52;14.93;;;;;;;6.73;100.00;101393.75;5062287;28;20025;-72
2022/10/10 02:01:31;;;;;;;13.20;12.60;;;;;;;6.69;100.00;101385.25;5060818;28;20043;-72
2022/10/10 02:04:16;;;;;;;16.48;15.82;;;;;;;6.66;100.00;101387.25;5066543;28;20056;-72
2022/10/10 02:06:49;;;;;;;14.98;14.35;;;;;;;6.61;100.00;101382.34;5062344;28;20025;-72
2022/10/10 02:09:21;;;;;;;13.73;13.15;;;;;;;6.52;100.00;101362.84;5062196;28;20020;-72
2022/10/10 02:11:47;;;;;;;16.67;15.68;;;;;;;6.61;100.00;101381.50;5066602;28;20049;-72
2022/10/10 02:14:19;;;;;;;14.73;13.90;;;;;;;6.57;100.00;101376.47;5063785;28;20028;-72
2022/10/10 02:16:48;;;;;;;16.38;15.38;;;;;;;6.59;100.00;101369.31;5066180;28;20037;-72
2022/10/10 02:19:18;;;;;;;15.80;14.98;;;;;;;6.44;100.00;101346.84;5064792;28;20031;-72
2022/10/10 02:21:46;;;;;;;16.13;15.40;;;;;;;6.51;100.00;101355.94;5071987;28;20016;-72
2022/10/10 02:24:13;;;;;;;18.77;17.30;;;;;;;6.56;100.00;101364.31;5067212;28;20048;-72
2022/10/10 02:26:42;;;;;;;15.45;14.77;;;;;;;6.53;100.00;101354.06;5065885;28;20138;-72
2022/10/10 02:29:21;;;;;;;15.02;14.35;;;;;;;6.58;100.00;101359.78;5061144;28;20043;-72
2022/10/10 02:32:22;;;;;;;18.40;17.45;;;;;;;6.58;100.00;101362.41;5067830;28;20025;-71
2022/10/10 02:34:53;;;;;;;13.55;13.00;;;;;;;6.59;100.00;101361.44;5006668;28;20057;-71
2022/10/10 02:37:19;;;;;;;17.85;16.73;;;;;;;6.47;100.00;101332.69;5008321;28;20101;-71
2022/10/10 02:39:52;;;;;;;15.88;15.05;;;;;;;6.57;100.00;101350.22;4999943;28;20540;-72
2022/10/10 02:42:21;;;;;;;16.48;15.80;;;;;;;6.56;100.00;101350.38;4994732;28;20026;-72
2022/10/10 02:44:47;;;;;;;17.65;16.85;;;;;;;6.52;100.00;101347.13;4994038;28;20535;-72
2022/10/10 02:47:13;;;;;;;20.25;19.40;;;;;;;6.53;100.00;101348.81;5007211;28;20121;-72
2022/10/10 02:49:39;;;;;;;16.38;15.57;;;;;;;6.52;100.00;101347.13;5008874;28;20053;-73
2022/10/10 02:52:04;;;;;;;18.90;17.90;;;;;;;6.52;100.00;101346.28;5007052;28;20124;-72
2022/10/10 02:54:29;;;;;;;19.52;18.75;;;;;;;6.51;100.00;101340.22;5006218;28;20470;-72
2022/10/10 02:56:55;;;;;;;17.55;16.77;;;;;;;6.53;100.00;101338.31;5005814;28;20041;-72
2022/10/10 02:59:20;;;;;;;17.27;16.48;;;;;;;6.53;100.00;101333.06;5007695;28;20466;-72
2022/10/10 03:01:45;;;;;;;17.02;16.33;;;;;;;6.52;100.00;101327.94;5005429;28;20081;-72
2022/10/10 03:04:12;;;;;;;18.02;17.30;;;;;;;6.52;100.00;101315.66;5008122;28;20046;-72
2022/10/10 03:06:37;;;;;;;16.33;15.68;;;;;;;6.49;100.00;101318.50;5005314;28;20523;-72
2022/10/10 03:09:03;;;;;;;18.90;17.85;;;;;;;6.51;100.00;101313.13;5005747;28;20124;-72
2022/10/10 03:11:29;;;;;;;17.88;17.05;;;;;;;6.50;100.00;101317.53;5063836;28;20396;-72
2022/10/10 03:13:54;;;;;;;20.67;19.77;;;;;;;6.49;100.00;101321.13;5062457;28;20029;-72
2022/10/10 03:16:20;;;;;;;16.50;15.77;;;;;;;6.49;100.00;101315.88;5064802;28;20067;-72
2022/10/10 03:18:45;;;;;;;20.25;19.40;;;;;;;6.47;100.00;101317.78;5059660;28;20033;-72
2022/10/10 03:21:10;;;;;;;19.90;18.90;;;;;;;6.45;100.00;101313.59;5065848;28;20086;-72
2022/10/10 03:23:36;;;;;;;19.95;18.55;;;;;;;6.43;100.00;101318.94;5063130;28;20021;-72
2022/10/10 03:26:02;;;;;;;16.38;15.70;;;;;;;6.43;100.00;101316.34;5061004;28;20079;-72
2022/10/10 03:28:28;;;;;;;17.55;16.70;;;;;;;6.43;100.00;101315.50;5058487;28;20025;-72
2022/10/10 03:30:53;;;;;;;16.50;15.75;;;;;;;6.42;100.00;101311.19;5068409;28;20396;-72
2022/10/10 03:33:19;;;;;;;17.48;16.80;;;;;;;6.42;100.00;101319.88;5065929;28;20393;-72
2022/10/10 03:35:44;;;;;;;17.60;16.85;;;;;;;6.29;100.00;101292.88;5068081;28;20094;-72
2022/10/10 03:38:12;;;;;;;17.10;16.30;;;;;;;6.37;100.00;101311.53;5062926;28;20037;-72
2022/10/10 03:40:39;;;;;;;20.02;19.02;;;;;;;6.36;100.00;101315.13;5069156;28;20099;-72
2022/10/10 03:43:06;;;;;;;18.15;17.35;;;;;;;6.32;100.00;101308.41;5067769;28;20028;-72
2022/10/10 03:45:31;;;;;;;17.17;16.45;;;;;;;6.34;100.00;101311.75;5071476;28;20059;-72
2022/10/10 03:47:57;;;;;;;17.35;16.65;;;;;;;6.33;100.00;101304.81;5065011;28;20056;-72
2022/10/10 03:50:22;;;;;;;17.45;16.65;;;;;;;6.33;100.00;101302.22;5069189;28;20041;-72
2022/10/10 03:52:47;;;;;;;18.20;17.38;;;;;;;6.32;100.00;101303.16;5062601;28;20782;-72
2022/10/10 03:55:13;;;;;;;14.57;13.98;;;;;;;6.30;100.00;101300.66;5072466;28;20086;-72
2022/10/10 03:57:38;;;;;;;14.82;14.25;;;;;;;6.28;100.00;101301.72;5068897;28;21114;-72
2022/10/10 04:00:04;;;;;;;16.17;15.40;;;;;;;6.25;100.00;101296.69;5062044;28;20434;-72
2022/10/10 04:02:30;;;;;;;18.08;16.95;;;;;;;6.27;100.00;101300.88;5066539;28;20047;-72
2022/10/10 04:04:55;;;;;;;14.95;14.32;;;;;;;6.16;100.00;101277.22;5062665;28;20059;-72
2022/10/10 04:07:20;;;;;;;19.17;18.30;;;;;;;6.26;100.00;101295.75;5066061;28;20135;-72
2022/10/10 04:09:46;;;;;;;16.70;15.80;;;;;;;6.25;100.00;101294.91;5064750;28;20036;-72
2022/10/10 04:12:11;;;;;;;16.63;15.82;;;;;;;6.24;100.00;101295.00;5070550;28;20081;-72
2022/10/10 04:14:36;;;;;;;16.38;15.48;;;;;;;6.23;100.00;101293.31;5065337;28;20028;-71
2022/10/10 04:17:02;;;;;;;17.13;16.33;;;;;;;6.22;100.00;101296.91;5069392;28;20036;-71
2022/10/10 04:19:27;;;;;;;14.50;13.93;;;;;;;6.16;100.00;101288.56;5063950;28;20033;-71
2022/10/10 04:21:52;;;;;;;16.55;15.77;;;;;;;6.03;100.00;101271.19;5065500;28;20121;-73
2022/10/10 04:24:18;;;;;;;15.00;14.32;;;;;;;6.14;100.00;101287.81;5061843;28;20572;-72
2022/10/10 04:26:43;;;;;;;14.63;13.82;;;;;;;6.12;100.00;101286.28;5064698;28;20029;-73
2022/10/10 04:29:08;;;;;;;14.23;13.52;;;;;;;6.11;100.00;101288.03;5065015;28;20029;-73
2022/10/10 04:31:34;;;;;;;16.48;15.65;;;;;;;6.03;100.00;101276.41;5059571;28;20017;-72
2022/10/10 04:34:00;;;;;;;17.67;16.92;;;;;;;6.01;100.00;101289.66;5063673;28;20091;-71
2022/10/10 04:36:25;;;;;;;16.80;16.00;;;;;;;6.00;100.00;101292.38;5067017;28;20021;-71
2022/10/10 04:38:50;;;;;;;15.63;14.93;;;;;;;6.01;100.00;101278.31;5063099;28;20088;-71
2022/10/10 04:41:16;;;;;;;14.18;13.30;;;;;;;6.00;100.00;101284.50;5067311;28;20026;-71
2022/10/10 04:43:41;;;;;;;15.23;14.57;;;;;;;5.96;100.00;101274.22;5064653;28;20028;-71
2022/10/10 04:46:06;;;;;;;14.43;13.75;;;;;;;5.93;100.00;101270.97;5059407;28;20054;-71
2022/10/10 04:48:32;;;;;;;13.80;13.10;;;;;;;5.92;100.00;101275.41;5069978;28;20092;-70
2022/10/10 04:50:57;;;;;;;14.00;13.35;;;;;;;5.92;100.00;101278.00;5066575;28;20078;-70
2022/10/10 04:53:24;;;;;;;14.40;13.70;;;;;;;5.90;100.00;101272.03;5061482;28;20089;-70
2022/10/10 04:55:50;;;;;;;14.25;13.45;;;;;;;5.89;100.00;101272.16;5068871;28;20162;-70
2022/10/10 04:58:15;;;;;;;13.55;12.95;;;;;;;5.88;100.00;101273.06;5059995;28;20543;-72
2022/10/10 05:00:41;;;;;;;15.43;14.75;;;;;;;5.77;100.00;101240.66;5058665;28;20384;-72
2022/10/10 05:03:09;;;;;;;16.13;14.93;;;;;;;5.87;100.00;101261.78;5063491;28;20154;-72
2022/10/10 05:05:34;;;;;;;12.98;12.40;;;;;;;5.86;100.00;101262.72;5066322;28;20033;-72
2022/10/10 05:07:59;;;;;;;13.73;13.13;;;;;;;5.88;100.00;101254.75;5062812;28;20155;-72
2022/10/10 05:10:25;;;;;;;17.98;16.85;;;;;;;5.75;100.00;101239.91;5062191;28;20443;-73
2022/10/10 05:12:51;;;;;;;13.40;12.75;;;;;;;5.85;100.00;101254.97;5067059;28;20173;-73
2022/10/10 05:15:17;;;;;;;15.00;13.85;;;;;;;5.83;100.00;101264.72;5063380;28;20413;-71
2022/10/10 05:17:42;;;;;;;13.35;12.70;;;;;;;5.80;100.00;101257.09;5065268;28;20020;-72
2022/10/10 05:20:09;;;;;;;13.93;13.32;;;;;;;5.76;100.00;101259.06;5062205;28;20031;-72
2022/10/10 05:22:34;;;;;;;13.13;12.43;;;;;;;5.57;100.00;101233.34;5059103;28;20037;-73
2022/10/10 05:25:00;;;;;;;13.93;13.27;;;;;;;5.64;100.00;101250.31;5060693;28;20086;-71
2022/10/10 05:27:26;;;;;;;14.90;14.18;;;;;;;5.59;100.00;101257.63;5060467;28;20055;-71
2022/10/10 05:29:51;;;;;;;12.98;12.40;;;;;;;5.56;100.00;101252.63;5059439;28;20135;-71
2022/10/10 05:32:17;;;;;;;14.55;13.85;;;;;;;5.56;100.00;101252.63;5059207;28;20112;-72
2022/10/10 05:34:43;;;;;;;14.55;13.95;;;;;;;5.53;100.00;101242.34;5057860;28;20028;-72
2022/10/10 05:37:08;;;;;;;14.75;13.65;;;;;;;5.60;100.00;101248.03;5058475;28;20025;-72
2022/10/10 05:39:34;;;;;;;15.50;14.80;;;;;;;5.60;100.00;101248.84;5058493;28;20116;-72
2022/10/10 05:41:59;;;;;;;14.32;13.68;;;;;;;5.47;100.00;101227.09;5067004;28;20059;-72
2022/10/10 05:44:25;;;;;;;15.25;14.43;;;;;;;5.63;100.00;101248.63;5068827;28;20597;-72
2022/10/10 05:46:50;;;;;;;16.85;16.05;;;;;;;5.62;100.00;101241.72;5062211;28;20048;-73
2022/10/10 05:49:16;;;;;;;17.35;16.42;;;;;;;5.62;100.00;101241.72;5052706;28;20020;-73
2022/10/10 05:51:41;;;;;;;14.05;13.48;;;;;;;5.62;100.00;101235.63;5053548;28;20032;-73
2022/10/10 05:54:07;;;;;;;16.23;15.27;;;;;;;5.61;100.00;101247.91;5058842;28;20097;-72
2022/10/10 05:56:32;;;;;;;15.93;15.23;;;;;;;5.66;100.00;101237.97;5061330;28;20087;-74
2022/10/10 05:58:58;;;;;;;16.55;15.52;;;;;;;5.70;100.00;101243.78;5069545;28;20127;-73
2022/10/10 06:01:23;;;;;;;14.00;13.10;;;;;;;5.75;100.00;101231.22;5065007;28;20029;-72
2022/10/10 06:03:51;;;;;;;15.90;14.68;;;;;;;5.75;100.00;101232.06;5062867;28;20033;-73
2022/10/10 06:06:18;;;;;;;14.82;14.13;;;;;;;5.77;100.00;101237.19;5063471;28;20033;-73
2022/10/10 06:08:44;;;;;;;70.82;66.60;;;;;;;5.72;100.00;101227.03;5063954;28;20035;-73
2022/10/10 06:11:10;;;;;;;15.90;15.13;;;;;;;5.84;100.00;101234.97;5078808;28;20652;-72
2022/10/10 06:13:36;;;;;;;16.42;15.68;;;;;;;5.82;100.00;101234.25;5068563;28;20044;-72
2022/10/10 06:16:02;;;;;;;15.55;14.93;;;;;;;5.85;100.00;101231.41;5069407;28;20029;-72
2022/10/10 06:18:27;;;;;;;14.65;14.05;;;;;;;5.76;100.00;101220.63;5070292;28;20027;-73
2022/10/10 06:20:53;;;;;;;14.48;13.82;;;;;;;5.88;100.00;101225.91;5074855;28;20083;-73
2022/10/10 06:23:19;;;;;;;14.27;13.50;;;;;;;5.89;100.00;101228.44;5070272;28;20055;-72
2022/10/10 06:25:45;;;;;;;15.48;14.73;;;;;;;5.73;100.00;101197.28;5076573;28;20074;-72
2022/10/10 06:28:11;;;;;;;15.57;14.80;;;;;;;5.75;100.00;101194.56;5064448;28;20037;-70
2022/10/10 06:30:43;;;;;;;16.60;15.88;;;;;;;5.98;100.00;101237.44;5073631;28;20033;-70
2022/10/10 06:33:10;;;;;;;20.63;19.15;;;;;;;5.85;100.00;101203.41;5075337;28;20029;-70
2022/10/10 06:35:41;;;;;;;18.17;17.33;;;;;;;5.97;100.00;101214.84;5073233;28;20376;-73
2022/10/10 06:38:06;;;;;;;19.40;18.60;;;;;;;5.98;100.00;101211.25;5077805;28;20032;-72
2022/10/10 06:40:32;;;;;;;20.83;19.63;;;;;;;6.10;100.00;101231.34;5074348;28;20025;-72
2022/10/10 06:42:57;;;;;;;25.50;23.73;;;;;;;6.21;100.00;101243.66;5073092;28;20354;-72
2022/10/10 06:45:23;;;;;;;21.42;20.52;;;;;;;6.28;100.00;101241.44;5075024;28;20113;-72
2022/10/10 06:47:49;;;;;;;23.85;22.90;;;;;;;6.28;100.00;101231.78;5079188;28;20768;-72
2022/10/10 06:50:14;;;;;;;22.55;21.60;;;;;;;6.44;100.00;101234.09;5068630;28;20071;-72
2022/10/10 06:52:40;;;;;;;24.38;23.33;;;;;;;6.52;100.00;101231.75;5074856;28;20032;-71
2022/10/10 06:55:06;;;;;;;25.92;24.80;;;;;;;6.62;100.00;101236.28;5071362;28;20040;-71
2022/10/10 06:57:31;;;;;;;29.05;27.67;;;;;;;6.70;100.00;101239.19;5068673;28;20025;-73
2022/10/10 06:59:56;;;;;;;31.52;30.25;;;;;;;6.65;100.00;101217.72;5069105;28;20048;-71
2022/10/10 07:02:22;;;;;;;35.80;34.15;;;;;;;6.84;100.00;101230.25;5070699;28;20020;-71
2022/10/10 07:04:47;;;;;;;36.50;34.50;;;;;;;6.76;100.00;101212.50;5066100;28;20031;-71
2022/10/10 07:07:12;;;;;;;42.67;40.95;;;;;;;7.04;100.00;101244.50;5060729;28;20554;-73
2022/10/10 07:09:38;;;;;;;45.47;43.58;;;;;;;7.12;100.00;101244.75;5069057;28;20075;-73
2022/10/10 07:12:03;;;;;;;86.88;82.03;;;;;;;7.19;100.00;101252.03;5067181;28;20079;-71
2022/10/10 07:14:28;;;;;;;54.08;51.65;;;;;;;7.29;100.00;101251.31;5070807;28;20041;-71
2022/10/10 07:16:54;;;;;;;46.55;44.78;;;;;;;7.33;100.00;101247.50;5073163;28;20108;-71
2022/10/10 07:19:20;;;;;;;45.80;43.90;;;;;;;7.32;100.00;101243.22;5081022;28;20025;-71
2022/10/10 07:21:46;;;;;;;51.00;48.80;;;;;;;7.40;100.00;101246.06;5070273;28;20036;-71
2022/10/10 07:24:11;;;;;;;56.05;53.85;;;;;;;7.43;100.00;101221.38;5073246;28;20024;-73
2022/10/10 07:26:37;;;;;;;55.13;52.75;;;;;;;7.67;100.00;101250.97;5084549;28;20089;-72
2022/10/10 07:29:04;;;;;;;64.00;61.47;;;;;;;7.75;100.00;101247.72;5067503;28;20024;-72
2022/10/10 07:31:30;;;;;;;63.53;61.08;;;;;;;7.86;100.00;101249.50;5067123;28;20044;-73
2022/10/10 07:33:55;;;;;;;55.10;52.90;;;;;;;7.78;100.00;101234.34;5071292;28;20523;-72
2022/10/10 07:36:20;;;;;;;54.20;51.97;;;;;;;8.03;100.00;101252.47;5067573;28;20031;-72
2022/10/10 07:38:50;;;;;;;57.38;55.08;;;;;;;8.13;100.00;101247.28;5063249;28;20036;-75
2022/10/10 07:41:16;;;;;;;54.63;52.13;;;;;;;8.19;100.00;101256.47;5071798;28;20020;-74
2022/10/10 07:43:41;;;;;;;56.00;53.85;;;;;;;8.25;100.00;101255.94;5069427;28;20218;-73
2022/10/10 07:46:18;;;;;;;61.45;58.80;;;;;;;8.39;100.00;101262.72;5068245;28;20033;-72
2022/10/10 07:48:44;;;;;;;51.17;48.83;;;;;;;8.74;100.00;101267.75;5063127;28;20085;-73
2022/10/10 07:51:10;;;;;;;50.20;48.22;;;;;;;9.02;100.00;101261.00;5063649;28;20120;-72
2022/10/10 07:53:36;;;;;;;36.90;35.22;;;;;;;9.20;100.00;101263.03;5065130;28;20032;-72
2022/10/10 07:56:06;;;;;;;26.25;24.92;;;;;;;9.38;100.00;101271.97;5061333;28;20024;-73
2022/10/10 07:58:33;;;;;;;16.63;15.63;;;;;;;9.58;98.24;101272.06;5059997;28;20496;-73
2022/10/10 08:01:07;;;;;;;14.65;13.77;;;;;;;9.84;97.79;101289.09;5062152;28;20397;-73
2022/10/10 08:03:32;;;;;;;9.35;8.68;;;;;;;9.75;96.01;101274.06;5061124;28;20024;-73
2022/10/10 08:06:02;;;;;;;8.10;7.63;;;;;;;9.57;96.90;101270.41;5066835;28;20413;-73
2022/10/10 08:08:27;;;;;;;37.25;11.02;;;;;;;9.57;97.71;101278.31;5065142;28;20031;-73
2022/10/10 08:10:53;;;;;;;8.70;8.07;;;;;;;9.55;97.71;101277.63;5062959;28;20048;-73
2022/10/10 08:13:18;;;;;;;11.98;11.07;;;;;;;9.68;98.21;101278.22;5069788;28;20353;-72
2022/10/10 08:15:43;;;;;;;11.15;10.52;;;;;;;10.26;97.68;101283.63;5065922;28;20174;-72
2022/10/10 08:18:09;;;;;;;7.88;7.32;;;;;;;10.38;95.06;101281.72;5064128;28;20032;-73
2022/10/10 08:20:34;;;;;;;6.63;6.13;;;;;;;10.72;93.02;101278.66;5064565;28;20036;-72
2022/10/10 08:22:59;;;;;;;6.50;5.90;;;;;;;10.98;92.43;101268.34;5062480;28;20037;-73
2022/10/10 08:25:25;;;;;;;7.40;5.63;;;;;;;10.88;90.45;101272.81;5067527;28;20040;-74
2022/10/10 08:27:50;;;;;;;6.50;5.65;;;;;;;10.89;91.92;101272.66;5065759;28;20017;-73
2022/10/10 08:30:16;;;;;;;5.68;5.03;;;;;;;10.77;92.13;101270.31;5067005;28;20472;-72
2022/10/10 08:32:42;;;;;;;5.68;5.18;;;;;;;10.93;92.51;101270.59;5059792;28;20021;-73
2022/10/10 08:35:07;;;;;;;7.70;5.65;;;;;;;11.48;91.66;101268.06;5060789;28;20059;-73
2022/10/10 08:37:32;;;;;;;5.82;5.43;;;;;;;12.12;90.20;101262.84;5070872;28;20029;-73
2022/10/10 08:39:58;;;;;;;5.32;4.75;;;;;;;12.44;87.72;101266.81;5064810;28;20036;-73
2022/10/10 08:42:32;;;;;;;8.32;5.03;;;;;;;12.51;87.18;101257.25;5066601;28;20013;-73
2022/10/10 08:45:03;;;;;;;5.65;5.10;;;;;;;12.24;87.67;101250.25;5070058;28;20128;-73
2022/10/10 08:47:42;;;;;;;5.10;4.57;;;;;;;12.29;89.38;101262.03;5063048;28;20041;-74
2022/10/10 08:50:19;;;;;;;5.82;5.38;;;;;;;12.12;89.27;101245.16;5067160;28;20496;-73
2022/10/10 08:52:47;;;;;;;6.55;5.70;;;;;;;12.57;88.19;101267.25;5064183;28;20028;-73
2022/10/10 08:55:29;;;;;;;7.70;6.88;;;;;;;13.11;86.91;101254.72;5063306;28;20025;-74
2022/10/10 08:58:01;;;;;;;6.65;5.35;;;;;;;13.45;85.28;101261.06;5061806;28;20438;-77
2022/10/10 09:00:31;;;;;;;9.55;6.28;;;;;;;14.27;83.00;101248.03;5055321;28;20052;-76
2022/10/10 09:02:59;;;;;;;6.10;3.70;;;;;;;15.33;78.50;101255.06;5061265;28;20039;-74
2022/10/10 09:05:40;;;;;;;4.70;4.20;;;;;;;16.36;73.54;101254.91;5054331;28;20037;-75
2022/10/10 09:08:19;;;;;;;4.03;2.90;;;;;;;16.92;71.07;101237.78;5061249;28;20508;-75
2022/10/10 09:10:56;;;;;;;4.30;3.17;;;;;;;17.53;68.87;101259.78;5060207;28;20049;-76
2022/10/10 09:13:29;;;;;;;4.60;3.33;;;;;;;18.70;68.96;101254.25;5061216;28;20070;-74
2022/10/10 09:16:06;;;;;;;4.78;3.58;;;;;;;18.39;67.09;101249.25;5062254;28;20020;-75
2022/10/10 09:18:54;;;;;;;4.75;2.70;;;;;;;18.62;65.96;101248.22;5057296;28;20526;-75
2022/10/10 09:21:24;;;;;;;3.78;2.75;;;;;;;18.92;65.09;101251.53;5061351;28;20052;-75
2022/10/10 09:23:56;;;;;;;7.28;3.65;;;;;;;19.55;62.94;101259.50;5059529;28;20111;-74
2022/10/10 09:26:28;;;;;;;5.28;2.60;;;;;;;19.16;63.45;101258.28;5061507;28;20027;-75
2022/10/10 09:29:04;;;;;;;4.38;2.70;;;;;;;19.80;63.48;101248.34;5057835;28;20032;-75
2022/10/10 09:31:56;;;;;;;7.20;3.30;;;;;;;20.08;61.22;101259.75;5059858;28;20013;-75
2022/10/10 09:34:34;;;;;;;5.80;3.70;;;;;;;19.00;63.25;101253.25;5052552;28;20040;-78
2022/10/10 09:37:03;;;;;;;4.25;2.90;;;;;;;18.88;64.46;101240.44;5079397;28;20009;-76
2022/10/10 09:39:39;;;;;;;8.35;2.97;;;;;;;18.78;64.17;101228.41;5084666;28;20040;-76
2022/10/10 09:42:11;;;;;;;4.07;3.13;;;;;;;17.98;68.06;101255.19;5091985;28;20039;-76
2022/10/10 09:44:39;;;;;;;7.63;3.80;;;;;;;17.77;69.58;101231.09;5092194;28;20076;-76
2022/10/10 09:47:12;;;;;;;8.45;3.92;;;;;;;17.91;67.86;101256.97;5091582;28;20021;-76
2022/10/10 09:49:38;;;;;;;5.75;3.13;;;;;;;17.53;67.91;101209.09;5094448;28;20019;-77
2022/10/10 09:52:22;;;;;;;6.85;3.33;;;;;;;18.15;69.41;101254.97;5086510;28;20795;-77
2022/10/10 09:54:49;;;;;;;15.48;7.53;;;;;;;18.43;68.05;101193.56;5089733;28;20017;-77
2022/10/10 09:57:19;;;;;;;9.07;4.72;;;;;;;18.16;67.73;101276.16;5092597;28;20035;-77
2022/10/10 09:59:45;;;;;;;9.85;5.38;;;;;;;18.07;69.50;101263.91;5089977;28;20096;-77
2022/10/10 10:02:22;;;;;;;6.53;4.13;;;;;;;18.58;68.33;101202.31;5081816;28;20048;-76
2022/10/10 10:04:49;;;;;;;8.85;5.65;;;;;;;18.81;64.59;101212.78;5089820;28;20043;-77
2022/10/10 10:07:32;;;;;;;7.80;7.03;;;;;;;18.27;67.26;101272.16;5082638;28;20025;-77
2022/10/10 10:10:17;;;;;;;6.88;3.22;;;;;;;20.50;62.79;101297.94;5089927;28;20020;-77
2022/10/10 10:12:44;;;;;;;4.20;3.25;;;;;;;20.11;63.13;101240.56;5089562;28;20015;-77
2022/10/10 10:15:19;;;;;;;5.60;3.63;;;;;;;21.13;60.68;101232.31;5080251;28;20029;-77
2022/10/10 10:17:44;;;;;;;4.30;2.90;;;;;;;21.98;59.32;101299.38;5092895;28;20029;-77
2022/10/10 10:20:28;;;;;;;4.82;3.08;;;;;;;21.07;59.75;101294.88;5091615;28;20054;-77
2022/10/10 10:22:55;;;;;;;3.30;3.00;;;;;;;18.54;64.99;101245.69;5082603;28;20029;-77
2022/10/10 10:25:35;;;;;;;4.95;3.08;;;;;;;18.42;66.52;101251.56;5065527;28;20040;-78
2022/10/10 10:28:10;;;;;;;4.47;3.10;;;;;;;18.74;67.83;101297.47;5088727;28;20025;-77
2022/10/10 10:30:38;;;;;;;5.07;3.50;;;;;;;19.75;63.79;101232.88;5081185;28;20069;-77
2022/10/10 10:33:41;;;;;;;7.13;3.55;;;;;;;21.32;61.47;101301.22;5091556;28;20037;-77
2022/10/10 10:36:59;;;;;;;4.75;2.97;;;;;;;21.97;59.98;101311.97;5087209;28;20032;-78
2022/10/10 10:39:42;;;;;;;4.80;3.22;;;;;;;20.07;63.18;101298.25;5084497;28;20029;-77
2022/10/10 10:42:32;;;;;;;5.40;2.55;;;;;;;20.22;64.35;101230.28;5092556;28;20055;-77
2022/10/10 10:45:16;;;;;;;2.87;2.60;;;;;;;21.84;61.21;101309.34;5067794;28;20017;-77
2022/10/10 10:48:16;;;;;;;6.57;3.05;;;;;;;21.59;60.75;101298.50;5090854;28;20279;-77
2022/10/10 10:50:51;;;;;;;4.28;3.13;;;;;;;19.36;65.02;101233.47;5076565;28;20021;-77
2022/10/10 10:53:54;;;;;;;5.53;3.50;;;;;;;18.43;68.00;101298.63;5075417;28;20028;-77
2022/10/10 10:56:47;;;;;;;3.20;2.85;;;;;;;18.96;67.84;101295.59;5064381;28;20058;-77
2022/10/10 10:59:23;;;;;;;5.20;3.15;;;;;;;19.09;67.22;101281.50;5074180;28;20579;-77
2022/10/10 11:01:57;;;;;;;5.13;3.00;;;;;;;18.47;68.84;101182.31;5071846;28;20057;-77
2022/10/10 11:04:37;;;;;;;3.78;3.20;;;;;;;19.17;68.32;101280.53;5053191;28;20113;-77
2022/10/10 11:07:14;;;;;;;4.00;3.22;;;;;;;18.28;68.50;101285.31;5074948;28;20085;-77
2022/10/10 11:10:08;;;;;;;9.65;5.20;;;;;;;18.20;70.64;101284.59;5075142;28;20084;-77
2022/10/10 11:13:05;;;;;;;7.47;4.90;;;;;;;18.32;70.88;101288.44;5087536;28;20021;-77
2022/10/10 11:15:55;;;;;;;4.55;3.85;;;;;;;17.08;71.49;101168.28;5109714;28;20040;-77
2022/10/10 11:18:24;;;;;;;6.20;4.37;;;;;;;16.99;73.99;101284.06;5092107;28;20028;-77
2022/10/10 11:21:01;;;;;;;11.30;4.78;;;;;;;16.25;76.09;101178.09;5092584;28;20024;-77
2022/10/10 11:23:35;;;;;;;5.53;4.28;;;;;;;16.89;75.87;101243.50;5090419;28;20051;-76
2022/10/10 11:26:09;;;;;;;5.55;5.05;;;;;;;17.09;75.47;101287.28;5083675;28;20028;-77